Time;durP1;ratioP1;P1;durP2;ratioP2;P2;SDS_P1;SDS_P2;PMS_P1;PMS_P2;Temp;Humidity;BMP_temperature;BMP_pressure;BME280_temperature;BME280_humidity;BME280_pressure;Samples;Min_cycle;Max_cycle;Signal;HPM_P1;HPM_P2
2023/02/12 00:01:20;;;;;;;29.17;17.10;;;6.60;99.90;;;;;;7367109;19;20019;-68
2023/02/12 00:03:46;;;;;;;31.33;17.58;;;6.60;99.90;;;;;;7363073;19;20044;-69
2023/02/12 00:06:12;;;;;;;32.10;16.80;;;6.60;99.90;;;;;;7367843;19;20011;-68
2023/02/12 00:08:39;;;;;;;29.63;16.35;;;6.60;99.90;;;;;;7375787;19;20129;-76
2023/02/12 00:11:11;;;;;;;25.08;15.63;;;6.60;99.90;;;;;;7381859;19;20015;-76
2023/02/12 00:13:38;;;;;;;34.75;16.65;;;6.60;99.90;;;;;;7378834;19;20018;-76
2023/02/12 00:16:15;;;;;;;26.52;15.70;;;6.70;99.90;;;;;;7385839;19;20011;-77
2023/02/12 00:18:43;;;;;;;31.40;16.67;;;6.60;99.90;;;;;;7371421;19;20019;-68
2023/02/12 00:21:12;;;;;;;26.77;16.58;;;6.60;99.90;;;;;;7370117;19;20010;-68
2023/02/12 00:23:40;;;;;;;39.72;17.50;;;6.60;99.90;;;;;;7368801;19;20011;-67
2023/02/12 00:26:08;;;;;;;30.15;15.73;;;6.60;99.90;;;;;;7377333;19;20014;-77
2023/02/12 00:28:35;;;;;;;34.13;17.25;;;6.50;99.90;;;;;;7384503;19;20022;-76
2023/02/12 00:31:11;;;;;;;23.95;15.77;;;6.50;99.90;;;;;;7380683;19;20906;-76
2023/02/12 00:33:40;;;;;;;29.70;16.40;;;6.50;99.90;;;;;;7383877;19;20018;-76
2023/02/12 00:36:09;;;;;;;31.67;17.05;;;6.50;99.90;;;;;;7370442;19;20874;-77
2023/02/12 00:38:35;;;;;;;41.30;18.42;;;6.50;99.90;;;;;;7370322;19;20025;-77
2023/02/12 00:41:03;;;;;;;30.58;16.73;;;6.50;99.90;;;;;;7372897;19;20018;-77
2023/02/12 00:43:29;;;;;;;26.90;16.95;;;6.40;99.90;;;;;;7370805;19;20015;-76
2023/02/12 00:45:56;;;;;;;39.05;19.73;;;6.40;99.90;;;;;;7371552;19;20006;-76
2023/02/12 00:48:22;;;;;;;35.38;17.55;;;6.40;99.90;;;;;;7370594;19;20023;-76
2023/02/12 00:50:49;;;;;;;36.70;18.75;;;6.40;99.90;;;;;;7366444;19;20015;-68
2023/02/12 00:53:16;;;;;;;34.65;17.63;;;6.40;99.90;;;;;;7361129;19;20018;-69
2023/02/12 00:55:43;;;;;;;30.52;18.10;;;6.40;99.90;;;;;;7366361;19;20010;-66
2023/02/12 00:58:10;;;;;;;37.10;18.05;;;6.40;99.90;;;;;;7361633;19;20026;-67
2023/02/12 01:00:37;;;;;;;31.13;18.17;;;6.40;99.90;;;;;;7365876;19;20418;-66
2023/02/12 01:03:04;;;;;;;30.15;17.95;;;6.40;99.90;;;;;;7362716;19;20074;-67
2023/02/12 01:05:32;;;;;;;33.17;18.67;;;6.40;99.90;;;;;;7367171;19;20026;-69
2023/02/12 01:08:10;;;;;;;25.98;17.80;;;6.30;99.90;;;;;;7364113;19;20040;-67
2023/02/12 01:10:37;;;;;;;39.70;20.38;;;6.30;99.90;;;;;;7363905;19;20110;-68
2023/02/12 01:13:03;;;;;;;39.17;20.90;;;6.30;99.90;;;;;;7364924;19;20018;-69
2023/02/12 01:15:29;;;;;;;35.28;20.17;;;6.30;99.90;;;;;;7363807;19;20696;-69
2023/02/12 01:17:56;;;;;;;34.70;20.10;;;6.30;99.90;;;;;;7358422;19;20018;-68
2023/02/12 01:20:24;;;;;;;33.88;19.63;;;6.30;99.90;;;;;;7359258;19;20470;-68
2023/02/12 01:22:52;;;;;;;39.67;20.85;;;6.20;99.90;;;;;;7360667;19;20036;-69
2023/02/12 01:25:19;;;;;;;40.13;20.00;;;6.20;99.90;;;;;;7362749;19;20022;-76
2023/02/12 01:27:45;;;;;;;33.88;19.23;;;6.20;99.90;;;;;;7371569;19;20022;-68
2023/02/12 01:30:12;;;;;;;32.65;19.80;;;6.20;99.90;;;;;;7363823;19;20018;-68
2023/02/12 01:32:38;;;;;;;34.92;21.42;;;6.20;99.90;;;;;;7364311;19;20434;-68
2023/02/12 01:35:06;;;;;;;35.92;20.40;;;6.10;99.90;;;;;;7374107;19;20089;-77
2023/02/12 01:37:36;;;;;;;36.58;19.98;;;6.10;99.90;;;;;;7377651;19;20022;-76
2023/02/12 01:40:03;;;;;;;32.83;19.70;;;6.10;99.90;;;;;;7373757;19;20047;-77
2023/02/12 01:42:31;;;;;;;34.28;19.70;;;6.10;99.90;;;;;;7377489;19;20026;-67
2023/02/12 01:45:12;;;;;;;34.35;19.58;;;6.20;99.90;;;;;;7363201;19;20495;-67
2023/02/12 01:47:43;;;;;;;34.75;20.27;;;6.10;99.90;;;;;;7369100;19;20022;-68
2023/02/12 01:50:15;;;;;;;37.40;19.55;;;6.10;99.90;;;;;;7365643;19;20032;-67
2023/02/12 01:52:49;;;;;;;34.83;21.05;;;6.20;99.90;;;;;;7364562;19;20420;-67
2023/02/12 01:55:17;;;;;;;42.25;20.60;;;6.20;99.90;;;;;;7371754;19;20014;-76
2023/02/12 01:57:47;;;;;;;37.80;20.20;;;6.20;99.90;;;;;;7376531;19;20613;-77
2023/02/12 02:00:18;;;;;;;43.08;20.92;;;6.20;99.90;;;;;;7379427;19;20038;-76
2023/02/12 02:02:48;;;;;;;39.97;21.02;;;6.20;99.90;;;;;;7379213;19;20021;-76
2023/02/12 02:05:22;;;;;;;38.55;21.60;;;6.20;99.90;;;;;;7379262;19;20018;-76
2023/02/12 02:07:49;;;;;;;44.63;22.33;;;6.20;99.90;;;;;;7375023;19;20025;-67
2023/02/12 02:10:16;;;;;;;46.83;21.60;;;6.10;99.90;;;;;;7372913;19;20053;-76
2023/02/12 02:15:32;;;;;;;62.40;25.98;;;6.10;99.90;;;;;;7358554;19;20027;-68
2023/02/12 02:18:07;;;;;;;57.65;23.95;;;6.10;99.90;;;;;;7370066;19;20643;-67
2023/02/12 02:21:13;;;;;;;45.42;23.13;;;6.10;99.90;;;;;;7369995;19;20017;-67
2023/02/12 02:24:03;;;;;;;49.40;22.27;;;6.10;99.90;;;;;;7375928;19;20090;-76
2023/02/12 02:27:03;;;;;;;41.08;21.55;;;6.10;99.90;;;;;;7381140;19;20485;-76
2023/02/12 02:29:48;;;;;;;46.58;24.27;;;6.10;99.90;;;;;;7368222;19;20793;-67
2023/02/12 02:32:30;;;;;;;51.28;22.52;;;6.10;99.90;;;;;;7370974;19;20022;-67
2023/02/12 02:35:23;;;;;;;52.33;23.00;;;6.10;99.90;;;;;;7368857;19;20081;-68
2023/02/12 02:38:06;;;;;;;49.88;23.02;;;6.10;99.90;;;;;;7379422;19;20044;-76
2023/02/12 02:40:51;;;;;;;62.92;26.00;;;6.10;99.90;;;;;;7381363;19;20037;-68
2023/02/12 02:43:26;;;;;;;84.13;28.95;;;6.10;99.90;;;;;;7370413;19;20019;-68
2023/02/12 02:46:26;;;;;;;74.45;28.38;;;6.10;99.90;;;;;;7367051;19;20025;-69
2023/02/12 02:48:57;;;;;;;54.80;23.63;;;6.10;99.90;;;;;;7367309;19;20026;-76
2023/02/12 02:51:29;;;;;;;61.90;24.55;;;6.00;99.90;;;;;;7380781;19;20018;-76
2023/02/12 02:54:40;;;;;;;73.32;25.30;;;6.00;99.90;;;;;;7373823;19;20754;-76
2023/02/12 02:57:21;;;;;;;71.70;24.75;;;6.00;99.90;;;;;;7378862;19;20014;-76
2023/02/12 02:59:58;;;;;;;86.25;25.33;;;6.00;99.90;;;;;;7382252;19;20033;-76
2023/02/12 03:02:53;;;;;;;99.32;27.40;;;5.90;99.90;;;;;;7379441;19;20024;-76
2023/02/12 03:05:26;;;;;;;49.78;23.92;;;5.90;99.90;;;;;;7381241;19;20039;-76
2023/02/12 03:07:59;;;;;;;58.72;24.95;;;5.90;99.90;;;;;;7380713;19;20026;-76
2023/02/12 03:10:37;;;;;;;91.53;27.13;;;5.90;99.90;;;;;;7380300;19;20094;-76
2023/02/12 03:13:11;;;;;;;52.25;22.80;;;5.90;99.90;;;;;;7382889;19;20041;-76
2023/02/12 03:15:59;;;;;;;71.50;26.95;;;5.90;99.90;;;;;;7379890;19;20026;-76
2023/02/12 03:18:32;;;;;;;89.68;26.95;;;5.90;99.90;;;;;;7376746;19;20027;-77
2023/02/12 03:21:04;;;;;;;46.92;24.38;;;5.90;99.90;;;;;;7380112;19;20790;-68
2023/02/12 03:23:49;;;;;;;45.50;24.05;;;5.90;99.90;;;;;;7382147;19;20019;-76
2023/02/12 03:26:24;;;;;;;49.38;23.13;;;5.90;99.90;;;;;;7378115;19;20022;-76
2023/02/12 03:28:51;;;;;;;61.80;25.63;;;5.90;99.90;;;;;;7381730;19;20019;-76
2023/02/12 03:31:34;;;;;;;61.15;24.88;;;5.90;99.90;;;;;;7380159;19;20020;-76
2023/02/12 03:34:25;;;;;;;54.08;25.52;;;5.90;99.90;;;;;;7374175;19;20014;-76
2023/02/12 03:37:03;;;;;;;77.47;26.85;;;5.80;99.90;;;;;;7379353;19;20085;-77
2023/02/12 03:39:52;;;;;;;63.45;25.00;;;5.80;99.90;;;;;;7373270;19;20057;-67
2023/02/12 03:42:47;;;;;;;64.22;26.60;;;5.80;99.90;;;;;;7381863;19;20015;-76
2023/02/12 03:45:41;;;;;;;71.03;28.58;;;5.80;99.90;;;;;;7374469;19;20026;-76
2023/02/12 03:48:25;;;;;;;65.05;27.73;;;5.80;99.90;;;;;;7377847;19;20061;-76
2023/02/12 03:50:54;;;;;;;;;;;5.80;99.90;;;;;;7369334;19;20022;-68
2023/02/12 03:53:21;;;;;;;73.18;27.92;;;5.80;99.90;;;;;;7365981;19;20012;-68
2023/02/12 03:55:54;;;;;;;66.40;26.02;;;5.80;99.90;;;;;;7376198;19;20014;-76
2023/02/12 03:58:24;;;;;;;101.63;30.25;;;5.80;99.90;;;;;;7381521;19;20979;-76
2023/02/12 04:00:51;;;;;;;81.47;27.48;;;5.80;99.90;;;;;;7381222;19;20037;-76
2023/02/12 04:03:17;;;;;;;101.78;28.42;;;5.80;99.90;;;;;;7381824;19;20018;-76
2023/02/12 04:05:43;;;;;;;103.03;31.35;;;5.80;99.90;;;;;;7371274;19;20041;-67
2023/02/12 04:08:31;;;;;;;87.85;29.30;;;5.70;99.90;;;;;;7368056;19;20022;-67
2023/02/12 04:11:22;;;;;;;80.35;28.70;;;5.70;99.90;;;;;;7365254;19;20655;-68
2023/02/12 04:14:03;;;;;;;100.55;32.70;;;5.80;99.90;;;;;;7368822;19;20034;-68
2023/02/12 04:16:39;;;;;;;134.25;34.72;;;5.80;99.90;;;;;;7363344;19;20022;-68
2023/02/12 04:19:06;;;;;;;111.88;31.02;;;5.70;99.90;;;;;;7368047;19;20049;-75
2023/02/12 04:21:43;;;;;;;188.30;38.35;;;5.70;99.90;;;;;;7379377;19;20021;-76
2023/02/12 04:24:33;;;;;;;214.80;41.50;;;5.70;99.90;;;;;;7376110;19;20011;-68
2023/02/12 04:27:12;;;;;;;154.05;31.33;;;5.70;99.90;;;;;;7373193;19;20041;-77
2023/02/12 04:29:51;;;;;;;174.23;35.40;;;5.70;99.90;;;;;;7370300;19;20035;-76
2023/02/12 04:32:40;;;;;;;171.98;35.03;;;5.70;99.90;;;;;;7373436;19;20023;-76
2023/02/12 04:35:18;;;;;;;154.95;32.15;;;5.70;99.90;;;;;;7375345;19;20022;-76
2023/02/12 04:37:47;;;;;;;196.00;34.88;;;5.70;99.90;;;;;;7375851;19;20018;-77
2023/02/12 04:40:17;;;;;;;221.10;35.45;;;5.70;99.90;;;;;;7372663;19;20022;-77
2023/02/12 04:42:51;;;;;;;171.10;33.30;;;5.70;99.90;;;;;;7372931;19;20078;-76
2023/02/12 04:45:33;;;;;;;172.38;32.78;;;5.70;99.90;;;;;;7371538;19;20018;-67
2023/02/12 04:48:00;;;;;;;255.20;39.30;;;5.70;99.90;;;;;;7377798;19;20058;-76
2023/02/12 04:50:40;;;;;;;208.05;35.30;;;5.70;99.90;;;;;;7374067;19;20318;-67
2023/02/12 04:53:07;;;;;;;189.23;33.92;;;5.70;99.90;;;;;;7374159;19;20105;-69
2023/02/12 04:55:33;;;;;;;159.27;29.27;;;5.70;99.90;;;;;;7367814;19;20038;-67
2023/02/12 04:58:00;;;;;;;182.88;31.75;;;5.70;99.90;;;;;;7362160;19;20018;-67
2023/02/12 05:00:26;;;;;;;184.77;31.20;;;5.70;99.90;;;;;;7366870;19;20032;-67
2023/02/12 05:02:52;;;;;;;310.45;42.95;;;5.60;99.90;;;;;;7369607;19;20675;-68
2023/02/12 05:05:20;;;;;;;205.20;33.75;;;5.70;99.90;;;;;;7367916;19;20380;-68
2023/02/12 05:07:47;;;;;;;246.38;35.45;;;5.70;99.90;;;;;;7367449;19;20018;-68
2023/02/12 05:10:13;;;;;;;320.80;44.45;;;5.60;99.90;;;;;;7374531;19;20022;-68
2023/02/12 05:12:43;;;;;;;223.80;35.95;;;5.60;99.90;;;;;;7371490;19;20021;-68
2023/02/12 05:15:13;;;;;;;295.88;41.10;;;5.60;99.90;;;;;;7378090;19;20011;-76
2023/02/12 05:17:40;;;;;;;166.13;32.05;;;5.60;99.90;;;;;;7372591;19;20364;-68
2023/02/12 05:20:07;;;;;;;209.55;38.80;;;5.60;99.90;;;;;;7377266;19;20136;-77
2023/02/12 05:22:34;;;;;;;135.75;31.42;;;5.60;99.90;;;;;;7367198;19;20815;-67
2023/02/12 05:25:00;;;;;;;188.13;36.22;;;5.60;99.90;;;;;;7366798;19;20388;-76
2023/02/12 05:27:27;;;;;;;202.23;36.40;;;5.60;99.90;;;;;;7368141;19;20014;-76
2023/02/12 05:29:55;;;;;;;150.57;32.00;;;5.60;99.90;;;;;;7370857;19;20620;-68
2023/02/12 05:32:25;;;;;;;152.30;31.58;;;5.60;99.90;;;;;;7375657;19;20893;-77
2023/02/12 05:34:51;;;;;;;160.15;32.17;;;5.60;99.90;;;;;;7386170;19;20468;-76
2023/02/12 05:37:18;;;;;;;154.82;34.55;;;5.50;99.90;;;;;;7375705;19;20904;-68
2023/02/12 05:39:44;;;;;;;109.00;31.27;;;5.50;99.90;;;;;;7369025;19;20022;-68
2023/02/12 05:42:11;;;;;;;136.15;32.67;;;5.50;99.90;;;;;;7377014;19;20033;-77
2023/02/12 05:44:38;;;;;;;136.02;34.17;;;5.50;99.90;;;;;;7384968;19;20018;-77
2023/02/12 05:47:05;;;;;;;105.82;31.40;;;5.50;99.90;;;;;;7375859;19;20022;-77
2023/02/12 05:49:31;;;;;;;101.47;29.83;;;5.40;99.90;;;;;;7378892;19;20011;-77
2023/02/12 05:51:57;;;;;;;128.50;32.92;;;5.40;99.90;;;;;;7384575;19;20018;-77
2023/02/12 05:54:28;;;;;;;96.88;32.25;;;5.40;99.90;;;;;;7385607;19;20082;-77
2023/02/12 05:57:00;;;;;;;95.00;28.02;;;5.40;99.90;;;;;;7378112;19;20010;-77
2023/02/12 05:59:27;;;;;;;85.57;30.08;;;5.40;99.90;;;;;;7376971;19;20014;-68
2023/02/12 06:01:53;;;;;;;96.40;30.40;;;5.30;99.90;;;;;;7372332;19;20025;-68
2023/02/12 06:04:23;;;;;;;109.32;32.17;;;5.40;99.90;;;;;;7375645;19;20505;-68
2023/02/12 06:06:50;;;;;;;85.40;29.55;;;5.40;99.90;;;;;;7378523;19;20018;-76
2023/02/12 06:09:17;;;;;;;73.18;28.10;;;5.30;99.90;;;;;;7376594;19;20078;-77
2023/02/12 06:11:44;;;;;;;78.45;28.98;;;5.40;99.90;;;;;;7384872;19;20037;-77
2023/02/12 06:14:16;;;;;;;66.47;28.35;;;5.30;99.90;;;;;;7384533;19;20014;-77
2023/02/12 06:16:47;;;;;;;69.55;26.48;;;5.40;99.90;;;;;;7379033;19;20015;-67
2023/02/12 06:19:14;;;;;;;66.90;27.17;;;5.30;99.90;;;;;;7378686;19;20014;-77
2023/02/12 06:21:40;;;;;;;68.72;26.85;;;5.40;99.90;;;;;;7383079;19;20018;-77
2023/02/12 06:24:08;;;;;;;58.55;27.48;;;5.40;99.90;;;;;;7378339;19;20799;-68
2023/02/12 06:26:34;;;;;;;70.07;26.65;;;5.40;99.90;;;;;;7372566;19;20386;-68
2023/02/12 06:29:01;;;;;;;69.40;27.00;;;5.40;99.90;;;;;;7375584;19;20018;-77
2023/02/12 06:31:33;;;;;;;76.55;27.15;;;5.40;99.90;;;;;;7377952;19;20011;-68
2023/02/12 06:34:13;;;;;;;66.93;26.42;;;5.40;99.90;;;;;;7371742;19;20022;-77
2023/02/12 06:36:41;;;;;;;73.93;28.08;;;5.40;99.90;;;;;;7382267;19;20022;-68
2023/02/12 06:39:08;;;;;;;55.95;24.73;;;5.40;99.90;;;;;;7377654;19;20018;-76
2023/02/12 06:41:34;;;;;;;64.25;26.00;;;5.40;99.90;;;;;;7381449;19;20093;-77
2023/02/12 06:44:00;;;;;;;58.40;26.30;;;5.40;99.90;;;;;;7371956;19;20019;-68
2023/02/12 06:46:27;;;;;;;67.03;26.52;;;5.40;99.90;;;;;;7375669;19;20093;-76
2023/02/12 06:48:59;;;;;;;64.80;27.55;;;5.40;99.90;;;;;;7369022;19;20014;-68
2023/02/12 06:51:27;;;;;;;55.85;25.48;;;5.40;99.90;;;;;;7368598;19;20516;-68
2023/02/12 06:53:54;;;;;;;69.28;25.17;;;5.40;99.90;;;;;;7369165;19;20057;-68
2023/02/12 06:56:24;;;;;;;56.45;29.17;;;5.40;99.90;;;;;;7368589;19;20031;-69
2023/02/12 06:59:00;;;;;;;54.80;29.38;;;5.40;99.90;;;;;;7370101;19;20090;-68
2023/02/12 07:01:29;;;;;;;53.58;28.88;;;5.40;99.90;;;;;;7375814;19;20018;-77
2023/02/12 07:03:58;;;;;;;61.47;30.55;;;5.40;99.90;;;;;;7380084;19;20025;-68
2023/02/12 07:06:29;;;;;;;72.65;34.42;;;5.40;99.90;;;;;;7368123;19;20783;-69
2023/02/12 07:08:56;;;;;;;68.13;32.33;;;5.40;99.90;;;;;;7384353;19;20049;-77
2023/02/12 07:11:29;;;;;;;74.00;35.22;;;5.40;99.90;;;;;;7379198;19;20011;-77
2023/02/12 07:13:56;;;;;;;69.75;32.97;;;5.40;99.90;;;;;;7368929;19;20028;-67
2023/02/12 07:16:22;;;;;;;72.50;31.30;;;5.50;99.90;;;;;;7370084;19;20182;-68
2023/02/12 07:18:49;;;;;;;88.10;35.40;;;5.50;99.90;;;;;;7376538;19;20018;-68
2023/02/12 07:21:16;;;;;;;81.28;34.53;;;5.50;99.90;;;;;;7371620;19;20956;-68
2023/02/12 07:23:51;;;;;;;78.88;33.97;;;5.50;99.90;;;;;;7370611;19;20414;-68
2023/02/12 07:26:20;;;;;;;73.57;35.25;;;5.50;99.90;;;;;;7367757;19;20033;-68
2023/02/12 07:28:51;;;;;;;74.55;33.13;;;5.50;99.90;;;;;;7376992;19;20497;-76
2023/02/12 07:31:21;;;;;;;70.88;33.40;;;5.60;99.90;;;;;;7376054;19;20014;-74
2023/02/12 07:33:48;;;;;;;78.18;36.92;;;5.60;99.90;;;;;;7378329;19;20022;-76
2023/02/12 07:36:18;;;;;;;84.68;36.00;;;5.60;99.90;;;;;;7376466;19;20025;-76
2023/02/12 07:38:44;;;;;;;73.38;34.67;;;5.70;99.90;;;;;;7375360;19;20022;-68
2023/02/12 07:41:14;;;;;;;75.45;32.78;;;5.70;99.90;;;;;;7368651;19;20022;-68
2023/02/12 07:43:42;;;;;;;75.25;33.08;;;5.70;99.90;;;;;;7366210;19;20014;-68
2023/02/12 07:46:15;;;;;;;72.78;32.88;;;5.70;99.90;;;;;;7367019;19;20029;-69
2023/02/12 07:48:42;;;;;;;78.45;33.47;;;5.80;99.90;;;;;;7369561;19;20764;-69
2023/02/12 07:51:14;;;;;;;77.03;33.22;;;5.80;99.90;;;;;;7368789;19;20018;-68
2023/02/12 07:53:41;;;;;;;70.30;32.88;;;5.80;99.90;;;;;;7376227;19;20010;-76
2023/02/12 07:56:17;;;;;;;71.43;32.22;;;5.80;99.90;;;;;;7377584;19;20038;-69
2023/02/12 07:58:49;;;;;;;71.63;31.40;;;5.80;99.90;;;;;;7375872;19;20006;-76
2023/02/12 08:01:28;;;;;;;65.50;32.10;;;5.90;99.90;;;;;;7375977;19;20026;-76
2023/02/12 08:04:00;;;;;;;64.72;32.67;;;5.90;99.90;;;;;;7376507;19;20018;-68
2023/02/12 08:06:29;;;;;;;59.95;29.00;;;5.90;99.90;;;;;;7369488;19;20611;-68
2023/02/12 08:08:58;;;;;;;66.22;29.98;;;5.90;99.90;;;;;;7366864;19;20052;-68
2023/02/12 08:11:26;;;;;;;62.88;29.50;;;6.00;99.90;;;;;;7364664;19;20821;-67
2023/02/12 08:13:57;;;;;;;62.75;29.15;;;6.00;99.90;;;;;;7369240;19;20039;-68
2023/02/12 08:16:27;;;;;;;53.83;28.25;;;6.00;99.90;;;;;;7376602;19;20825;-76
2023/02/12 08:18:54;;;;;;;55.38;28.45;;;6.00;99.90;;;;;;7374998;19;20018;-76
2023/02/12 08:21:23;;;;;;;47.00;26.50;;;6.10;99.90;;;;;;7371173;19;20018;-68
2023/02/12 08:23:50;;;;;;;51.33;29.23;;;6.10;99.90;;;;;;7366179;19;20616;-68
2023/02/12 08:26:18;;;;;;;46.88;28.58;;;6.20;99.90;;;;;;7366699;19;20432;-68
2023/02/12 08:28:48;;;;;;;41.42;26.33;;;6.20;99.90;;;;;;7365371;19;20098;-67
2023/02/12 08:31:19;;;;;;;45.45;25.98;;;6.20;99.90;;;;;;7365290;19;20850;-68
2023/02/12 08:33:49;;;;;;;43.15;27.25;;;6.20;99.90;;;;;;7364073;19;20543;-68
2023/02/12 08:36:24;;;;;;;41.10;25.63;;;6.30;99.90;;;;;;7367379;19;20019;-68
2023/02/12 08:38:51;;;;;;;41.75;26.67;;;6.30;99.90;;;;;;7363845;19;20045;-72
2023/02/12 08:41:23;;;;;;;45.63;29.10;;;6.30;99.90;;;;;;7372904;19;20029;-73
2023/02/12 08:43:53;;;;;;;47.78;28.83;;;6.30;99.90;;;;;;7368217;19;20030;-71
2023/02/12 08:46:26;;;;;;;48.10;29.58;;;6.40;99.90;;;;;;7366078;19;20035;-72
2023/02/12 08:48:55;;;;;;;44.92;27.85;;;6.40;99.90;;;;;;7367408;19;20023;-72
2023/02/12 08:51:25;;;;;;;50.35;28.02;;;6.40;99.90;;;;;;7369078;19;20034;-67
2023/02/12 08:53:53;;;;;;;44.05;27.83;;;6.50;99.90;;;;;;7369755;19;20018;-68
2023/02/12 08:56:20;;;;;;;44.33;26.85;;;6.50;99.90;;;;;;7367494;19;20026;-71
2023/02/12 08:58:47;;;;;;;45.65;29.73;;;6.60;99.90;;;;;;7371434;19;20028;-70
2023/02/12 09:01:20;;;;;;;45.67;27.75;;;6.60;99.90;;;;;;7366564;19;20802;-67
2023/02/12 09:03:47;;;;;;;44.60;26.05;;;6.70;99.90;;;;;;7366619;19;20366;-70
2023/02/12 09:06:16;;;;;;;41.78;25.60;;;6.70;99.90;;;;;;7369675;19;20014;-69
2023/02/12 09:08:43;;;;;;;42.10;26.10;;;6.80;99.90;;;;;;7371044;19;20066;-68
2023/02/12 09:11:16;;;;;;;42.60;27.58;;;6.80;99.90;;;;;;7365163;19;20101;-67
2023/02/12 09:13:45;;;;;;;42.40;26.92;;;6.90;99.90;;;;;;7368699;19;20018;-70
2023/02/12 09:16:12;;;;;;;43.63;28.63;;;6.90;99.90;;;;;;7371466;19;20374;-67
2023/02/12 09:18:39;;;;;;;40.58;26.65;;;7.00;99.90;;;;;;7368625;19;20491;-67
2023/02/12 09:21:18;;;;;;;42.38;27.55;;;7.00;99.90;;;;;;7368298;19;20029;-67
2023/02/12 09:23:45;;;;;;;44.10;27.98;;;7.10;99.90;;;;;;7366292;19;20022;-68
2023/02/12 09:26:14;;;;;;;46.17;27.55;;;7.20;99.90;;;;;;7367536;19;20022;-68
2023/02/12 09:28:41;;;;;;;42.75;26.90;;;7.20;99.90;;;;;;7366226;19;20016;-68
2023/02/12 09:31:16;;;;;;;48.70;29.45;;;7.40;99.90;;;;;;7364476;19;20014;-68
2023/02/12 09:33:43;;;;;;;43.47;27.60;;;7.40;99.90;;;;;;7364374;19;20022;-68
2023/02/12 09:36:15;;;;;;;46.58;29.45;;;7.40;99.90;;;;;;7363439;19;20477;-68
2023/02/12 09:38:42;;;;;;;;;;;7.50;99.90;;;;;;7364401;19;20023;-68
2023/02/12 09:41:56;;;;;;;45.05;28.42;;;7.50;99.90;;;;;;7366494;19;20523;-70
2023/02/12 09:44:44;;;;;;;40.83;27.25;;;7.60;99.90;;;;;;7365870;19;20422;-69
2023/02/12 09:47:30;;;;;;;42.08;28.88;;;7.60;99.90;;;;;;7369243;19;20441;-68
2023/02/12 09:50:18;;;;;;;41.88;26.73;;;7.70;99.90;;;;;;7368327;19;20589;-69
2023/02/12 09:52:47;;;;;;;46.47;28.88;;;7.70;99.90;;;;;;7368141;19;20039;-69
2023/02/12 09:55:16;;;;;;;38.28;27.67;;;7.70;99.90;;;;;;7367210;19;20019;-68
2023/02/12 09:57:45;;;;;;;43.15;28.50;;;7.70;99.90;;;;;;7366536;19;20712;-68
2023/02/12 10:00:27;;;;;;;49.28;30.10;;;7.80;99.90;;;;;;7364930;19;20027;-70
2023/02/12 10:02:54;;;;;;;42.63;27.27;;;7.80;99.90;;;;;;7365343;19;20021;-70
2023/02/12 10:05:31;;;;;;;42.78;27.23;;;7.90;99.90;;;;;;7366806;19;20014;-70
2023/02/12 10:08:12;;;;;;;40.97;28.33;;;8.00;99.90;;;;;;7364887;19;20057;-69
2023/02/12 10:10:39;;;;;;;39.15;27.85;;;8.10;99.90;;;;;;7358915;19;20379;-68
2023/02/12 10:13:25;;;;;;;45.10;30.05;;;8.20;99.90;;;;;;7361521;19;20011;-69
2023/02/12 10:16:03;;;;;;;41.05;26.70;;;8.30;99.90;;;;;;7369221;19;20018;-68
2023/02/12 10:19:23;;;;;;;39.10;27.75;;;8.30;99.90;;;;;;7373686;19;20584;-67
2023/02/12 10:22:21;;;;;;;37.80;27.38;;;8.40;99.90;;;;;;7367206;19;20825;-68
2023/02/12 10:25:19;;;;;;;39.03;24.95;;;8.50;99.90;;;;;;7372978;19;20050;-67
2023/02/12 10:27:49;;;;;;;33.53;24.02;;;8.60;99.90;;;;;;7372493;19;20026;-67
2023/02/12 10:30:18;;;;;;;38.85;26.15;;;8.70;99.90;;;;;;7371124;19;20044;-67
2023/02/12 10:32:49;;;;;;;32.90;24.17;;;8.70;99.90;;;;;;7371134;19;20094;-69
2023/02/12 10:35:17;;;;;;;35.20;24.60;;;8.80;99.90;;;;;;7375165;19;20018;-69
2023/02/12 10:37:49;;;;;;;33.17;23.58;;;8.80;99.90;;;;;;7373170;19;20030;-69
2023/02/12 10:40:29;;;;;;;34.63;23.65;;;8.90;99.90;;;;;;7373115;19;20019;-67
2023/02/12 10:42:57;;;;;;;30.85;22.85;;;9.00;99.90;;;;;;7371396;19;20014;-69
2023/02/12 10:45:25;;;;;;;31.67;22.33;;;9.10;99.90;;;;;;7374630;19;20042;-69
2023/02/12 10:48:08;;;;;;;30.20;21.90;;;9.20;99.90;;;;;;7367315;19;20029;-70
2023/02/12 10:50:54;;;;;;;30.67;21.15;;;9.40;99.90;;;;;;7366452;19;20025;-69
2023/02/12 10:53:48;;;;;;;29.77;21.00;;;9.40;99.90;;;;;;7369056;19;20022;-69
2023/02/12 10:56:18;;;;;;;27.63;20.15;;;9.50;99.90;;;;;;7367688;19;20449;-69
2023/02/12 10:58:55;;;;;;;28.73;20.80;;;9.50;99.90;;;;;;7370072;19;20667;-70
2023/02/12 11:01:37;;;;;;;27.13;19.67;;;9.60;99.90;;;;;;7366065;19;20018;-69
2023/02/12 11:04:25;;;;;;;27.83;19.13;;;9.70;99.90;;;;;;7369916;19;20050;-70
2023/02/12 11:07:04;;;;;;;28.33;18.77;;;9.90;99.90;;;;;;7372014;19;20014;-69
2023/02/12 11:09:44;;;;;;;28.23;18.90;;;10.60;99.90;;;;;;7371646;19;20500;-69
2023/02/12 11:12:33;;;;;;;23.23;17.33;;;11.40;99.90;;;;;;7369881;19;20022;-69
2023/02/12 11:15:00;;;;;;;22.42;15.52;;;11.50;99.90;;;;;;7371522;19;20018;-67
2023/02/12 11:17:38;;;;;;;23.55;16.73;;;11.30;99.90;;;;;;7368532;19;20046;-67
2023/02/12 11:20:47;;;;;;;24.33;16.65;;;11.10;99.90;;;;;;7368695;19;20014;-68
2023/02/12 11:23:24;;;;;;;22.35;16.67;;;10.70;99.90;;;;;;7369733;19;20648;-69
2023/02/12 11:26:04;;;;;;;22.10;16.38;;;10.60;99.90;;;;;;7367181;19;20025;-69
2023/02/12 11:28:33;;;;;;;22.73;15.57;;;10.50;99.90;;;;;;7372693;19;20014;-67
2023/02/12 11:31:21;;;;;;;25.38;17.83;;;10.50;99.90;;;;;;7365533;19;20014;-67
2023/02/12 11:34:11;;;;;;;25.55;16.42;;;10.30;99.90;;;;;;7366627;19;20022;-69
2023/02/12 11:36:51;;;;;;;23.50;17.08;;;10.20;99.90;;;;;;7366284;19;20050;-67
2023/02/12 11:39:32;;;;;;;22.75;16.63;;;10.20;99.90;;;;;;7366644;19;20052;-67
2023/02/12 11:42:14;;;;;;;21.27;15.75;;;10.20;99.90;;;;;;7368318;19;20028;-67
2023/02/12 11:44:47;;;;;;;19.88;14.77;;;10.20;99.90;;;;;;7367806;19;20074;-67
2023/02/12 11:47:22;;;;;;;24.42;17.00;;;10.10;99.90;;;;;;7368815;19;20227;-67
2023/02/12 11:50:02;;;;;;;24.02;15.88;;;10.20;99.90;;;;;;7367227;19;20395;-66
2023/02/12 11:52:35;;;;;;;25.40;17.25;;;10.20;99.90;;;;;;7365837;19;20018;-66
2023/02/12 11:55:17;;;;;;;24.02;17.23;;;10.20;99.90;;;;;;7366354;19;20051;-66
2023/02/12 11:57:51;;;;;;;25.10;18.05;;;10.20;99.90;;;;;;7370755;19;20010;-66
2023/02/12 12:00:28;;;;;;;20.55;14.45;;;10.20;99.90;;;;;;7371214;19;20022;-66
2023/02/12 12:03:25;;;;;;;15.23;11.18;;;10.20;99.90;;;;;;7368423;19;20018;-66
2023/02/12 12:05:57;;;;;;;16.58;11.27;;;10.20;99.90;;;;;;7366138;19;20023;-68
2023/02/12 12:08:43;;;;;;;19.58;12.95;;;10.20;99.90;;;;;;7373181;19;20018;-68
2023/02/12 12:11:18;;;;;;;22.20;13.52;;;10.10;99.90;;;;;;7371305;19;20781;-68
2023/02/12 12:13:56;;;;;;;16.80;12.40;;;10.20;99.90;;;;;;7373078;19;20015;-68
2023/02/12 12:22:39;;;;;;;16.92;12.13;;;10.00;99.90;;;;;;7369879;19;20019;-66
2023/02/12 12:25:19;;;;;;;18.23;12.80;;;10.00;99.90;;;;;;7368573;19;20039;-67
2023/02/12 12:28:04;;;;;;;19.73;12.55;;;10.00;99.90;;;;;;7371776;19;20022;-67
2023/02/12 12:30:55;;;;;;;20.65;12.45;;;10.00;99.90;;;;;;7374346;19;20122;-67
2023/02/12 12:33:39;;;;;;;16.77;10.73;;;10.00;99.90;;;;;;7372143;19;20018;-67
2023/02/12 12:36:29;;;;;;;15.77;10.93;;;10.00;99.90;;;;;;7369526;19;20029;-69
2023/02/12 12:39:08;;;;;;;19.23;10.75;;;9.90;99.90;;;;;;7370631;19;20635;-69
2023/02/12 12:42:05;;;;;;;17.30;10.38;;;10.00;99.90;;;;;;7369555;19;20803;-70
2023/02/12 12:45:04;;;;;;;17.02;10.77;;;9.90;99.90;;;;;;7369138;19;20023;-67
2023/02/12 12:47:44;;;;;;;16.83;10.73;;;9.80;99.90;;;;;;7368326;19;20816;-68
2023/02/12 12:50:43;;;;;;;17.27;12.40;;;9.80;99.90;;;;;;7364276;19;20026;-68
2023/02/12 12:53:31;;;;;;;17.00;12.38;;;9.70;99.90;;;;;;7368911;19;20018;-67
2023/02/12 12:56:17;;;;;;;17.20;12.23;;;9.80;99.90;;;;;;7364657;19;20018;-68
2023/02/12 12:59:39;;;;;;;17.45;12.10;;;9.70;99.90;;;;;;7368108;19;20023;-69
2023/02/12 13:02:33;;;;;;;16.50;12.02;;;9.70;99.90;;;;;;7364067;19;20572;-70
2023/02/12 13:05:13;;;;;;;19.35;12.13;;;9.70;99.90;;;;;;7362092;19;20044;-67
2023/02/12 13:08:07;;;;;;;17.08;12.20;;;9.70;99.90;;;;;;7361469;19;20022;-67
2023/02/12 13:10:49;;;;;;;17.27;12.35;;;9.70;99.90;;;;;;7364422;19;20026;-68
2023/02/12 13:13:36;;;;;;;;;;;9.80;99.90;;;;;;7365000;19;20074;-68
2023/02/12 13:16:26;;;;;;;18.45;12.50;;;9.60;99.90;;;;;;7365346;19;20340;-69
2023/02/12 13:19:07;;;;;;;18.33;12.40;;;9.70;99.90;;;;;;7365291;19;20022;-67
2023/02/12 13:21:45;;;;;;;18.17;12.10;;;9.70;99.90;;;;;;7365464;19;20026;-68